Time;durP1;ratioP1;P1;durP2;ratioP2;P2;SDS_P1;SDS_P2;PMS_P1;PMS_P2;Temp;Humidity;BMP_temperature;BMP_pressure;BME280_temperature;BME280_humidity;BME280_pressure;Samples;Min_cycle;Max_cycle;Signal;HPM_P1;HPM_P2
2023/10/29 00:00:30;;;;;;;12.45;4.75;;;;;;;;;;5061219;28;20068;-64
2023/10/29 00:02:58;;;;;;;7.55;4.82;;;;;;;;;;5060487;28;20044;-65
2023/10/29 00:05:25;;;;;;;8.10;4.90;;;;;;;;;;5065768;28;20048;-65
2023/10/29 00:07:53;;;;;;;10.18;5.07;;;;;;;;;;5062923;28;20045;-64
2023/10/29 00:10:20;;;;;;;8.98;5.10;;;;;;;;;;5066212;28;20056;-65
2023/10/29 00:12:48;;;;;;;7.45;4.40;;;;;;;;;;5063276;28;20053;-63
2023/10/29 00:15:17;;;;;;;10.30;4.88;;;;;;;;;;5062440;28;20053;-64
2023/10/29 00:17:44;;;;;;;10.48;4.97;;;;;;;;;;5057593;28;20041;-64
2023/10/29 00:20:12;;;;;;;12.13;4.72;;;;;;;;;;5068071;28;20052;-64
2023/10/29 00:22:39;;;;;;;6.82;4.30;;;;;;;;;;5059402;28;20128;-65
2023/10/29 00:25:06;;;;;;;18.38;4.43;;;;;;;;;;5061194;28;20060;-64
2023/10/29 00:27:33;;;;;;;8.60;4.40;;;;;;;;;;5058674;28;20049;-63
2023/10/29 00:30:01;;;;;;;10.85;4.20;;;;;;;;;;5061786;28;20056;-64
2023/10/29 00:32:29;;;;;;;7.43;3.83;;;;;;;;;;5059735;28;20401;-63
2023/10/29 00:34:57;;;;;;;8.75;4.15;;;;;;;;;;5061810;28;20052;-63
2023/10/29 00:37:24;;;;;;;11.48;3.90;;;;;;;;;;5055429;28;20077;-63
2023/10/29 00:39:51;;;;;;;9.30;3.92;;;;;;;;;;5052321;28;20071;-63
2023/10/29 00:42:19;;;;;;;7.55;3.97;;;;;;;;;;5064552;28;20143;-65
2023/10/29 00:44:46;;;;;;;7.18;3.90;;;;;;;;;;5060060;28;20448;-63
2023/10/29 00:47:14;;;;;;;7.03;3.55;;;;;;;;;;5052872;28;20142;-63
2023/10/29 00:49:42;;;;;;;8.70;3.92;;;;;;;;;;5066918;28;20044;-63
2023/10/29 00:52:10;;;;;;;7.28;4.10;;;;;;;;;;5060404;28;20048;-64
2023/10/29 00:54:37;;;;;;;7.95;3.63;;;;;;;;;;5056636;28;20390;-64
2023/10/29 00:57:05;;;;;;;8.55;3.78;;;;;;;;;;5055795;28;20502;-64
2023/10/29 00:59:32;;;;;;;5.18;2.80;;;;;;;;;;5064284;28;20055;-64
2023/10/29 01:02:00;;;;;;;5.63;3.30;;;;;;;;;;5057565;28;20141;-63
2023/10/29 01:04:27;;;;;;;5.10;3.05;;;;;;;;;;5057125;28;20412;-63
2023/10/29 01:06:55;;;;;;;8.82;2.67;;;;;;;;;;5054050;28;20048;-64
2023/10/29 01:09:23;;;;;;;6.03;2.80;;;;;;;;;;5055838;28;20045;-63
2023/10/29 01:11:50;;;;;;;7.30;3.67;;;;;;;;;;5056815;28;20052;-65
2023/10/29 01:14:17;;;;;;;5.30;3.45;;;;;;;;;;5056344;28;20053;-63
2023/10/29 01:16:44;;;;;;;5.90;3.28;;;;;;;;;;5061487;28;20056;-63
2023/10/29 01:19:12;;;;;;;5.90;3.40;;;;;;;;;;5050266;28;20789;-63
2023/10/29 01:21:39;;;;;;;6.53;3.42;;;;;;;;;;5053288;28;20051;-63
2023/10/29 01:24:08;;;;;;;6.97;3.22;;;;;;;;;;5057150;28;20044;-64
2023/10/29 01:26:36;;;;;;;6.60;3.10;;;;;;;;;;5060463;28;20044;-63
2023/10/29 01:29:04;;;;;;;6.05;3.35;;;;;;;;;;5054639;28;20045;-63
2023/10/29 01:31:31;;;;;;;6.50;3.42;;;;;;;;;;5053157;28;20045;-63
2023/10/29 01:33:58;;;;;;;5.72;3.38;;;;;;;;;;5054056;28;20045;-63
2023/10/29 01:36:26;;;;;;;5.45;3.75;;;;;;;;;;5055892;28;20041;-63
2023/10/29 01:38:53;;;;;;;6.70;3.90;;;;;;;;;;5065786;28;20055;-62
2023/10/29 01:41:22;;;;;;;7.07;4.00;;;;;;;;;;5062840;28;20056;-63
2023/10/29 01:43:49;;;;;;;7.68;3.63;;;;;;;;;;5058143;28;20045;-64
2023/10/29 01:46:19;;;;;;;6.95;3.80;;;;;;;;;;5060343;28;20057;-62
2023/10/29 01:48:46;;;;;;;7.95;4.35;;;;;;;;;;5056574;28;20045;-65
2023/10/29 01:51:13;;;;;;;7.05;3.88;;;;;;;;;;5056794;28;20055;-64
2023/10/29 01:53:41;;;;;;;6.57;3.83;;;;;;;;;;5058607;28;20064;-63
2023/10/29 01:56:08;;;;;;;7.13;3.80;;;;;;;;;;5054302;28;20052;-64
2023/10/29 01:58:37;;;;;;;7.38;3.70;;;;;;;;;;5063659;28;20403;-63
2023/10/29 02:01:09;;;;;;;7.63;4.03;;;;;;;;;;5052148;28;20064;-63
2023/10/29 02:03:37;;;;;;;7.85;3.72;;;;;;;;;;5054491;28;20056;-63
2023/10/29 02:06:04;;;;;;;7.07;3.67;;;;;;;;;;5056557;28;20049;-65
2023/10/29 02:08:31;;;;;;;5.72;3.60;;;;;;;;;;5053066;28;20048;-65
2023/10/29 02:10:58;;;;;;;7.00;3.47;;;;;;;;;;5060410;28;20041;-64
2023/10/29 02:13:26;;;;;;;5.90;3.17;;;;;;;;;;5057797;28;20067;-63
2023/10/29 02:15:55;;;;;;;6.43;3.17;;;;;;;;;;5057464;28;20143;-64
2023/10/29 02:18:22;;;;;;;8.25;3.30;;;;;;;;;;5053532;28;20060;-65
2023/10/29 02:20:49;;;;;;;6.35;2.90;;;;;;;;;;5057524;28;20384;-64
2023/10/29 02:23:18;;;;;;;10.02;2.60;;;;;;;;;;5059517;28;20052;-64
2023/10/29 02:25:45;;;;;;;4.30;2.42;;;;;;;;;;5053167;28;20049;-64
2023/10/29 02:28:12;;;;;;;7.60;2.60;;;;;;;;;;5061132;28;20051;-63
2023/10/29 02:30:39;;;;;;;5.68;2.30;;;;;;;;;;5060739;28;20518;-66
2023/10/29 02:33:07;;;;;;;4.90;2.20;;;;;;;;;;5057951;28;20051;-63
2023/10/29 02:35:34;;;;;;;7.38;2.25;;;;;;;;;;5059743;28;20422;-63
2023/10/29 02:38:01;;;;;;;3.88;1.67;;;;;;;;;;5058333;28;20045;-64
2023/10/29 02:40:30;;;;;;;4.80;1.73;;;;;;;;;;5052969;28;20041;-62
2023/10/29 02:42:57;;;;;;;5.10;1.52;;;;;;;;;;5053648;28;20059;-63
2023/10/29 02:45:24;;;;;;;4.85;1.60;;;;;;;;;;5059084;28;20075;-64
2023/10/29 02:47:53;;;;;;;4.30;1.52;;;;;;;;;;5060550;28;20057;-65
2023/10/29 02:50:20;;;;;;;3.75;1.40;;;;;;;;;;5065256;28;20055;-63
2023/10/29 02:52:48;;;;;;;5.30;1.27;;;;;;;;;;5061543;28;20063;-63
2023/10/29 02:55:15;;;;;;;1.83;0.98;;;;;;;;;;5057801;28;20053;-63
2023/10/29 02:57:43;;;;;;;4.95;1.27;;;;;;;;;;5070854;28;20049;-64
2023/10/29 03:00:12;;;;;;;3.92;1.27;;;;;;;;;;5062297;28;20048;-64
2023/10/29 03:02:38;;;;;;;1.67;1.15;;;;;;;;;;5061344;28;20155;-64
2023/10/29 03:05:06;;;;;;;3.13;1.15;;;;;;;;;;5062574;28;20456;-65
2023/10/29 03:07:33;;;;;;;1.90;1.08;;;;;;;;;;5065179;28;20059;-64
2023/10/29 03:10:00;;;;;;;5.20;1.20;;;;;;;;;;5059521;28;20041;-66
2023/10/29 03:12:27;;;;;;;2.60;1.05;;;;;;;;;;5056832;28;20049;-66
2023/10/29 03:14:56;;;;;;;4.45;1.20;;;;;;;;;;5061462;28;20048;-64
2023/10/29 03:17:23;;;;;;;3.10;0.90;;;;;;;;;;5065691;28;20044;-63
2023/10/29 03:19:50;;;;;;;3.03;1.10;;;;;;;;;;5064381;28;20411;-64
2023/10/29 03:22:18;;;;;;;3.80;0.80;;;;;;;;;;5063700;28;20053;-64
2023/10/29 03:24:45;;;;;;;5.03;1.20;;;;;;;;;;5059700;28;20400;-63
2023/10/29 03:27:12;;;;;;;2.92;1.13;;;;;;;;;;5060523;28;20048;-64
2023/10/29 03:29:39;;;;;;;2.65;0.90;;;;;;;;;;5060835;28;20408;-63
2023/10/29 03:32:08;;;;;;;3.35;1.00;;;;;;;;;;5058225;28;20048;-64
2023/10/29 03:34:35;;;;;;;1.70;0.93;;;;;;;;;;5061572;28;20506;-64
2023/10/29 03:37:03;;;;;;;3.42;0.85;;;;;;;;;;5060508;28;20064;-64
2023/10/29 03:39:30;;;;;;;2.88;0.80;;;;;;;;;;5062005;28;20048;-64
2023/10/29 03:41:58;;;;;;;2.50;0.80;;;;;;;;;;5056997;28;20407;-65
2023/10/29 03:44:25;;;;;;;4.10;0.70;;;;;;;;;;5054403;28;20049;-64
2023/10/29 03:46:52;;;;;;;2.17;0.60;;;;;;;;;;5054043;28;20055;-64
2023/10/29 03:49:21;;;;;;;4.93;0.88;;;;;;;;;;5055883;28;20056;-64
2023/10/29 03:51:49;;;;;;;3.78;0.80;;;;;;;;;;5058926;28;20057;-64
2023/10/29 03:54:16;;;;;;;3.90;0.60;;;;;;;;;;5057515;28;20056;-63
2023/10/29 03:56:43;;;;;;;3.30;0.60;;;;;;;;;;5060710;28;20045;-64
2023/10/29 03:59:10;;;;;;;1.85;0.70;;;;;;;;;;5060561;28;20041;-64
2023/10/29 04:01:37;;;;;;;2.17;0.55;;;;;;;;;;5057939;28;20072;-64
2023/10/29 04:04:05;;;;;;;0.77;0.40;;;;;;;;;;5061072;28;20159;-64
2023/10/29 04:06:34;;;;;;;2.03;0.50;;;;;;;;;;5061502;28;20057;-64
2023/10/29 04:09:01;;;;;;;4.63;0.60;;;;;;;;;;5060735;28;20052;-63
2023/10/29 04:11:28;;;;;;;1.50;0.50;;;;;;;;;;5068111;28;20397;-65
2023/10/29 04:13:55;;;;;;;1.25;0.50;;;;;;;;;;5057927;28;20591;-64
2023/10/29 04:16:23;;;;;;;1.55;0.60;;;;;;;;;;5060229;28;20052;-64
2023/10/29 04:18:50;;;;;;;0.98;0.45;;;;;;;;;;5059122;28;20052;-63
2023/10/29 04:21:17;;;;;;;1.95;0.52;;;;;;;;;;5053718;28;20048;-64
2023/10/29 04:23:46;;;;;;;2.28;0.50;;;;;;;;;;5062145;28;20048;-64
2023/10/29 04:26:13;;;;;;;2.35;0.40;;;;;;;;;;5057801;28;20044;-67
2023/10/29 04:28:40;;;;;;;1.88;0.40;;;;;;;;;;5061057;28;20060;-64
2023/10/29 04:31:08;;;;;;;0.80;0.40;;;;;;;;;;5064251;28;20055;-63
2023/10/29 04:33:37;;;;;;;0.77;0.30;;;;;;;;;;5060866;28;20045;-64
2023/10/29 04:36:05;;;;;;;1.05;0.30;;;;;;;;;;5060620;28;20079;-64
2023/10/29 04:38:35;;;;;;;0.95;0.30;;;;;;;;;;5060655;28;20045;-64
2023/10/29 04:41:04;;;;;;;6.03;0.57;;;;;;;;;;5064749;28;20045;-64
2023/10/29 04:43:31;;;;;;;0.30;0.20;;;;;;;;;;5055444;28;20052;-64
2023/10/29 04:45:58;;;;;;;0.95;0.20;;;;;;;;;;5058294;28;20057;-65
2023/10/29 04:48:26;;;;;;;2.70;0.28;;;;;;;;;;5065244;28;20063;-65
2023/10/29 04:50:53;;;;;;;0.43;0.20;;;;;;;;;;5061898;28;20354;-64
2023/10/29 04:53:20;;;;;;;1.50;0.20;;;;;;;;;;5058165;28;20408;-65
2023/10/29 04:55:47;;;;;;;2.35;0.40;;;;;;;;;;5063838;28;20053;-63
2023/10/29 04:58:16;;;;;;;3.20;0.30;;;;;;;;;;5067735;28;20045;-63
2023/10/29 05:00:43;;;;;;;2.55;0.25;;;;;;;;;;5061279;28;20147;-64
2023/10/29 05:03:10;;;;;;;1.15;0.20;;;;;;;;;;5067720;28;20058;-65
2023/10/29 05:05:38;;;;;;;0.30;0.10;;;;;;;;;;5062954;28;20056;-63
2023/10/29 05:08:06;;;;;;;1.38;0.30;;;;;;;;;;5058651;28;20577;-65
2023/10/29 05:10:33;;;;;;;2.13;0.10;;;;;;;;;;5058036;28;20559;-64
2023/10/29 05:13:00;;;;;;;1.60;0.20;;;;;;;;;;5062984;28;20051;-65
2023/10/29 05:15:30;;;;;;;0.38;0.20;;;;;;;;;;5055807;28;20542;-65
2023/10/29 05:17:57;;;;;;;1.50;0.20;;;;;;;;;;5068804;28;20083;-64
2023/10/29 05:20:24;;;;;;;0.80;0.15;;;;;;;;;;5053834;28;20052;-64
2023/10/29 05:22:52;;;;;;;1.92;0.20;;;;;;;;;;5060958;28;20040;-64
2023/10/29 05:25:20;;;;;;;4.57;0.28;;;;;;;;;;5052413;28;20491;-63
2023/10/29 05:27:51;;;;;;;0.25;0.20;;;;;;;;;;5064474;28;20520;-63
2023/10/29 05:30:18;;;;;;;0.32;0.20;;;;;;;;;;5055009;28;20202;-63
2023/10/29 05:32:46;;;;;;;1.83;0.30;;;;;;;;;;5062877;28;20480;-63
2023/10/29 05:35:14;;;;;;;0.88;0.30;;;;;;;;;;5055429;28;20049;-65
2023/10/29 05:37:42;;;;;;;4.57;0.30;;;;;;;;;;5054975;28;20548;-64
2023/10/29 05:40:10;;;;;;;1.50;0.20;;;;;;;;;;5055514;28;20052;-65
2023/10/29 05:42:37;;;;;;;2.28;0.50;;;;;;;;;;5061164;28;20048;-64
2023/10/29 05:45:06;;;;;;;0.45;0.22;;;;;;;;;;5061258;28;20063;-66
2023/10/29 05:47:34;;;;;;;0.93;0.30;;;;;;;;;;5053752;28;20127;-64
2023/10/29 05:50:03;;;;;;;6.60;0.63;;;;;;;;;;5063996;28;20142;-65
2023/10/29 05:52:31;;;;;;;5.18;0.40;;;;;;;;;;5059061;28;20107;-63
2023/10/29 05:54:58;;;;;;;1.67;0.52;;;;;;;;;;5055722;28;20064;-65
2023/10/29 05:57:25;;;;;;;2.83;1.05;;;;;;;;;;5056790;28;20045;-64
2023/10/29 05:59:52;;;;;;;3.95;0.47;;;;;;;;;;5057553;28;20056;-64
2023/10/29 06:02:20;;;;;;;1.38;0.40;;;;;;;;;;5059380;28;20052;-64
2023/10/29 06:04:47;;;;;;;2.67;0.40;;;;;;;;;;5057588;28;20067;-63
2023/10/29 06:07:15;;;;;;;1.80;0.45;;;;;;;;;;5049641;28;20060;-65
2023/10/29 06:09:43;;;;;;;4.57;0.45;;;;;;;;;;5055005;28;20037;-64
2023/10/29 06:12:11;;;;;;;1.55;0.40;;;;;;;;;;5057041;28;20504;-64
2023/10/29 06:14:38;;;;;;;3.28;0.60;;;;;;;;;;5056052;28;20045;-66
2023/10/29 06:17:05;;;;;;;2.10;0.70;;;;;;;;;;5061410;28;20058;-63
2023/10/29 06:19:33;;;;;;;2.38;0.40;;;;;;;;;;5061515;28;20826;-65
2023/10/29 06:22:01;;;;;;;0.90;0.28;;;;;;;;;;5068883;28;20093;-64
2023/10/29 06:24:29;;;;;;;0.77;0.30;;;;;;;;;;5065316;28;20053;-63
2023/10/29 06:26:57;;;;;;;0.95;0.40;;;;;;;;;;5061699;28;20110;-62
2023/10/29 06:29:24;;;;;;;1.05;0.30;;;;;;;;;;5064196;28;20510;-63
2023/10/29 06:31:51;;;;;;;2.15;0.30;;;;;;;;;;5068737;28;20048;-65
2023/10/29 06:34:18;;;;;;;0.70;0.20;;;;;;;;;;5068585;28;20071;-65
2023/10/29 06:36:45;;;;;;;0.85;0.30;;;;;;;;;;5069413;28;20048;-64
2023/10/29 06:39:13;;;;;;;2.47;0.38;;;;;;;;;;5066209;28;20051;-63
2023/10/29 06:41:41;;;;;;;0.85;0.17;;;;;;;;;;5059129;28;20424;-63
2023/10/29 06:44:09;;;;;;;2.78;0.20;;;;;;;;;;5054445;28;20510;-66
2023/10/29 06:46:36;;;;;;;1.05;0.40;;;;;;;;;;5061170;28;20065;-64
2023/10/29 06:49:03;;;;;;;3.53;0.60;;;;;;;;;;5061775;28;20044;-63
2023/10/29 06:51:30;;;;;;;2.17;0.22;;;;;;;;;;5056228;28;20507;-64
2023/10/29 06:53:57;;;;;;;2.65;0.38;;;;;;;;;;5057343;28;20040;-65
2023/10/29 06:56:25;;;;;;;6.20;0.50;;;;;;;;;;5058010;28;20251;-68
2023/10/29 06:58:54;;;;;;;2.55;0.40;;;;;;;;;;5055819;28;20056;-65
2023/10/29 07:01:21;;;;;;;3.10;0.35;;;;;;;;;;5054330;28;20049;-63
2023/10/29 07:03:49;;;;;;;2.90;0.50;;;;;;;;;;5058863;28;20132;-63
2023/10/29 07:06:16;;;;;;;5.75;0.30;;;;;;;;;;5061680;28;20454;-64
2023/10/29 07:08:45;;;;;;;5.43;1.00;;;;;;;;;;5055373;28;20055;-64
2023/10/29 07:11:12;;;;;;;4.18;0.40;;;;;;;;;;5056491;28;20052;-64
2023/10/29 07:13:39;;;;;;;1.80;0.30;;;;;;;;;;5063232;28;20052;-64
2023/10/29 07:16:09;;;;;;;1.63;0.45;;;;;;;;;;5060905;28;20049;-64
2023/10/29 07:18:36;;;;;;;0.90;0.30;;;;;;;;;;5068099;28;20048;-64
2023/10/29 07:21:04;;;;;;;3.83;0.45;;;;;;;;;;5064499;28;20393;-64
2023/10/29 07:23:32;;;;;;;2.83;0.40;;;;;;;;;;5063484;28;20106;-63
2023/10/29 07:25:59;;;;;;;2.67;0.70;;;;;;;;;;5055452;28;20049;-65
2023/10/29 07:28:28;;;;;;;2.35;0.40;;;;;;;;;;5068961;28;20048;-64
2023/10/29 07:30:56;;;;;;;3.80;0.65;;;;;;;;;;5057549;28;20053;-66
2023/10/29 07:33:24;;;;;;;2.40;0.40;;;;;;;;;;5064360;28;20060;-64
2023/10/29 07:35:51;;;;;;;6.88;0.68;;;;;;;;;;5064242;28;20080;-65
2023/10/29 07:38:19;;;;;;;4.28;0.47;;;;;;;;;;5068533;28;20060;-64
2023/10/29 07:40:46;;;;;;;3.55;0.60;;;;;;;;;;5067129;28;20081;-64
2023/10/29 07:43:13;;;;;;;3.15;0.55;;;;;;;;;;5058744;28;20049;-67
2023/10/29 07:45:40;;;;;;;4.63;0.60;;;;;;;;;;5060535;28;20041;-63
2023/10/29 07:48:07;;;;;;;5.05;0.50;;;;;;;;;;5052845;28;20110;-65
2023/10/29 07:50:36;;;;;;;5.93;0.73;;;;;;;;;;5055940;28;20052;-63
2023/10/29 07:53:04;;;;;;;5.07;0.70;;;;;;;;;;5058541;28;20080;-65
2023/10/29 07:55:31;;;;;;;5.05;1.17;;;;;;;;;;5055102;28;20052;-63
2023/10/29 07:57:59;;;;;;;7.68;0.70;;;;;;;;;;5052302;28;20124;-64
2023/10/29 08:00:26;;;;;;;4.80;0.65;;;;;;;;;;5059331;28;20059;-64
2023/10/29 08:02:53;;;;;;;7.63;0.63;;;;;;;;;;5058132;28;20049;-64
2023/10/29 08:05:20;;;;;;;6.10;0.60;;;;;;;;;;5063731;28;20053;-64
2023/10/29 08:07:49;;;;;;;5.45;0.90;;;;;;;;;;5058756;28;20132;-64
2023/10/29 08:10:17;;;;;;;4.97;1.02;;;;;;;;;;5055084;28;20040;-64
2023/10/29 08:12:44;;;;;;;4.72;0.80;;;;;;;;;;5060063;28;20058;-63
2023/10/29 08:15:12;;;;;;;4.85;1.00;;;;;;;;;;5056346;28;20048;-65
2023/10/29 08:17:39;;;;;;;9.98;0.80;;;;;;;;;;5052120;28;20490;-64
2023/10/29 08:20:07;;;;;;;6.35;0.85;;;;;;;;;;5059062;28;20051;-65
2023/10/29 08:22:34;;;;;;;5.55;0.90;;;;;;;;;;5056334;28;20063;-63
2023/10/29 08:25:03;;;;;;;9.07;0.90;;;;;;;;;;5061262;28;20059;-63
2023/10/29 08:27:30;;;;;;;5.78;0.90;;;;;;;;;;5057137;28;20505;-63
2023/10/29 08:29:58;;;;;;;6.88;1.20;;;;;;;;;;5060664;28;20045;-63
2023/10/29 08:32:27;;;;;;;5.72;0.80;;;;;;;;;;5058268;28;20075;-63
2023/10/29 08:34:54;;;;;;;8.70;0.95;;;;;;;;;;5061845;28;20049;-64
2023/10/29 08:37:21;;;;;;;7.18;1.10;;;;;;;;;;5059691;28;20057;-63
2023/10/29 08:39:49;;;;;;;8.05;0.90;;;;;;;;;;5059331;28;20144;-67
2023/10/29 08:42:17;;;;;;;2.85;0.82;;;;;;;;;;5056817;28;20052;-63
2023/10/29 08:44:45;;;;;;;8.00;1.10;;;;;;;;;;5062393;28;20055;-63
2023/10/29 08:47:12;;;;;;;11.23;1.20;;;;;;;;;;5055707;28;20610;-63
2023/10/29 08:49:39;;;;;;;5.78;0.90;;;;;;;;;;5062760;28;20048;-64
2023/10/29 08:52:07;;;;;;;7.65;1.73;;;;;;;;;;5056748;28;20056;-64
2023/10/29 08:54:34;;;;;;;3.75;0.85;;;;;;;;;;5063800;28;20049;-64
2023/10/29 08:57:01;;;;;;;6.53;1.15;;;;;;;;;;5052914;28;20048;-65
2023/10/29 08:59:30;;;;;;;8.82;0.85;;;;;;;;;;5053829;28;20102;-65
2023/10/29 09:01:57;;;;;;;4.32;0.50;;;;;;;;;;5057885;28;20056;-63
2023/10/29 09:04:26;;;;;;;7.00;0.68;;;;;;;;;;5053999;28;20052;-63
2023/10/29 09:06:53;;;;;;;5.95;1.02;;;;;;;;;;5060633;28;20084;-63
2023/10/29 09:09:21;;;;;;;6.80;0.80;;;;;;;;;;5060198;28;20049;-64
2023/10/29 09:11:53;;;;;;;6.78;0.80;;;;;;;;;;5053386;28;20049;-63
2023/10/29 09:14:20;;;;;;;5.03;0.98;;;;;;;;;;5064065;28;20044;-62
2023/10/29 09:16:49;;;;;;;6.65;0.82;;;;;;;;;;5063471;28;20044;-63
2023/10/29 09:19:16;;;;;;;6.40;0.85;;;;;;;;;;5062147;28;20209;-63
2023/10/29 09:21:44;;;;;;;7.93;1.05;;;;;;;;;;5057844;28;20045;-64
2023/10/29 09:24:12;;;;;;;9.18;1.00;;;;;;;;;;5056965;28;20060;-67
2023/10/29 09:26:40;;;;;;;5.22;0.68;;;;;;;;;;5055206;28;20135;-64
2023/10/29 09:29:09;;;;;;;6.22;0.82;;;;;;;;;;5065730;28;20049;-63
2023/10/29 09:31:36;;;;;;;3.72;0.77;;;;;;;;;;5055623;28;20044;-63
2023/10/29 09:34:06;;;;;;;3.83;0.65;;;;;;;;;;5057837;28;20053;-63
2023/10/29 09:36:33;;;;;;;6.93;0.85;;;;;;;;;;5054905;28;20049;-64
2023/10/29 09:39:00;;;;;;;2.38;0.52;;;;;;;;;;5057726;28;20060;-64
2023/10/29 09:41:28;;;;;;;4.38;0.80;;;;;;;;;;5056825;28;20480;-63
2023/10/29 09:43:55;;;;;;;9.15;0.80;;;;;;;;;;5059290;28;20051;-63
2023/10/29 09:46:23;;;;;;;3.83;0.50;;;;;;;;;;5061510;28;20461;-64
2023/10/29 09:48:51;;;;;;;4.93;0.52;;;;;;;;;;5055069;28;20053;-62
2023/10/29 09:51:21;;;;;;;1.98;0.50;;;;;;;;;;5056264;28;20040;-63
2023/10/29 09:53:51;;;;;;;5.45;0.88;;;;;;;;;;5060253;28;20041;-63
2023/10/29 09:56:18;;;;;;;5.22;0.90;;;;;;;;;;5050900;28;20048;-63
2023/10/29 09:58:46;;;;;;;9.60;1.40;;;;;;;;;;5058675;28;20041;-64
2023/10/29 10:01:14;;;;;;;6.32;0.95;;;;;;;;;;5051296;28;20488;-67
2023/10/29 10:03:41;;;;;;;5.25;0.85;;;;;;;;;;5057177;28;20051;-62
2023/10/29 10:06:08;;;;;;;4.45;0.90;;;;;;;;;;5055055;28;20041;-65
2023/10/29 10:08:37;;;;;;;6.18;1.13;;;;;;;;;;5053203;28;20128;-64
2023/10/29 10:11:04;;;;;;;6.55;0.77;;;;;;;;;;5058527;28;20048;-63
2023/10/29 10:13:38;;;;;;;8.43;0.77;;;;;;;;;;5056422;28;20612;-64
2023/10/29 10:16:10;;;;;;;2.15;0.55;;;;;;;;;;5058254;28;20144;-64
2023/10/29 10:18:52;;;;;;;5.40;0.70;;;;;;;;;;5053211;28;20057;-62
2023/10/29 10:21:20;;;;;;;4.85;0.63;;;;;;;;;;5048727;28;20045;-64
2023/10/29 10:23:50;;;;;;;5.28;0.70;;;;;;;;;;5057868;28;20063;-63
2023/10/29 10:26:20;;;;;;;4.53;0.60;;;;;;;;;;5056275;28;20063;-63
2023/10/29 10:28:54;;;;;;;10.35;0.80;;;;;;;;;;5059411;28;20484;-64
2023/10/29 10:31:22;;;;;;;3.30;0.60;;;;;;;;;;5056383;28;20369;-64
2023/10/29 10:33:49;;;;;;;3.63;0.80;;;;;;;;;;5057600;28;20048;-65
2023/10/29 10:36:31;;;;;;;5.53;0.70;;;;;;;;;;5058130;28;20079;-66
2023/10/29 10:39:00;;;;;;;6.03;0.77;;;;;;;;;;5054135;28;20435;-64
2023/10/29 10:41:39;;;;;;;4.15;0.90;;;;;;;;;;5058173;28;20040;-63
2023/10/29 10:44:09;;;;;;;5.53;0.75;;;;;;;;;;5056821;28;20056;-63
2023/10/29 10:46:39;;;;;;;4.55;0.85;;;;;;;;;;5051819;28;20061;-63
2023/10/29 10:49:07;;;;;;;10.43;1.98;;;;;;;;;;5055499;28;20053;-65
2023/10/29 10:51:36;;;;;;;3.92;0.70;;;;;;;;;;5055248;28;20048;-64
2023/10/29 10:54:06;;;;;;;4.32;0.68;;;;;;;;;;5065329;28;20102;-62
2023/10/29 10:56:35;;;;;;;8.00;0.77;;;;;;;;;;5059905;28;20045;-64
2023/10/29 10:59:04;;;;;;;5.05;0.90;;;;;;;;;;5054175;28;20053;-63
2023/10/29 11:01:32;;;;;;;4.97;0.68;;;;;;;;;;5056432;28;20049;-63
2023/10/29 11:04:01;;;;;;;5.32;0.95;;;;;;;;;;5056856;28;20099;-64
2023/10/29 11:06:29;;;;;;;6.88;0.75;;;;;;;;;;5060152;28;20052;-63
2023/10/29 11:08:56;;;;;;;6.32;0.80;;;;;;;;;;5063361;28;20527;-63
2023/10/29 11:11:26;;;;;;;5.53;0.85;;;;;;;;;;5068954;28;20052;-64
2023/10/29 11:14:08;;;;;;;4.93;0.95;;;;;;;;;;5061864;28;20051;-64
2023/10/29 11:16:35;;;;;;;3.88;0.80;;;;;;;;;;5063888;28;20127;-65
2023/10/29 11:19:37;;;;;;;7.00;1.10;;;;;;;;;;5062817;28;20055;-63
2023/10/29 11:22:17;;;;;;;5.90;0.98;;;;;;;;;;5060754;28;20060;-63
2023/10/29 11:24:44;;;;;;;7.13;1.00;;;;;;;;;;5057473;28;20400;-63
2023/10/29 11:27:30;;;;;;;5.10;0.90;;;;;;;;;;5057427;28;20044;-64
2023/10/29 11:30:12;;;;;;;5.15;0.60;;;;;;;;;;5063451;28;20044;-64
2023/10/29 11:32:39;;;;;;;2.72;0.63;;;;;;;;;;5061499;28;20044;-63
2023/10/29 11:35:20;;;;;;;6.60;0.98;;;;;;;;;;5060576;28;20094;-63
2023/10/29 11:37:48;;;;;;;5.78;0.75;;;;;;;;;;5060923;28;20057;-64
2023/10/29 11:40:32;;;;;;;7.05;0.90;;;;;;;;;;5062021;28;20476;-64
2023/10/29 11:42:59;;;;;;;;;;;;;;;;;;5056625;28;20052;-64
2023/10/29 11:45:40;;;;;;;3.83;0.95;;;;;;;;;;5056388;28;20003;-63
2023/10/29 11:48:11;;;;;;;8.43;1.00;;;;;;;;;;5055050;28;20168;-64
2023/10/29 11:50:39;;;;;;;8.70;0.98;;;;;;;;;;5063116;28;20055;-65
2023/10/29 11:53:06;;;;;;;5.65;1.00;;;;;;;;;;5059823;28;20052;-64
2023/10/29 11:55:38;;;;;;;4.03;0.93;;;;;;;;;;5062143;28;20056;-64
2023/10/29 11:58:07;;;;;;;5.70;0.93;;;;;;;;;;5059832;28;20045;-64
2023/10/29 12:00:38;;;;;;;5.75;0.60;;;;;;;;;;5066317;28;20361;-63
2023/10/29 12:03:08;;;;;;;7.68;0.70;;;;;;;;;;5058419;28;20068;-64
2023/10/29 12:05:36;;;;;;;9.45;0.93;;;;;;;;;;5060750;28;20071;-66
2023/10/29 12:08:03;;;;;;;8.25;0.60;;;;;;;;;;5059147;28;20049;-63
2023/10/29 12:10:31;;;;;;;3.17;0.80;;;;;;;;;;5061942;28;20049;-64
2023/10/29 12:12:58;;;;;;;8.60;1.13;;;;;;;;;;5063634;28;20061;-63
2023/10/29 12:15:26;;;;;;;6.28;1.10;;;;;;;;;;5053931;28;20056;-64
2023/10/29 12:17:53;;;;;;;6.70;1.00;;;;;;;;;;5054498;28;20389;-63
2023/10/29 12:20:25;;;;;;;3.78;0.88;;;;;;;;;;5058011;28;20055;-63
2023/10/29 12:22:57;;;;;;;5.70;0.88;;;;;;;;;;5056470;28;20041;-64
2023/10/29 12:25:25;;;;;;;5.50;0.93;;;;;;;;;;5051615;28;20373;-64
2023/10/29 12:27:52;;;;;;;7.13;0.90;;;;;;;;;;5065099;28;20155;-64
2023/10/29 12:30:35;;;;;;;4.95;0.90;;;;;;;;;;5061263;28;20074;-67
2023/10/29 12:33:22;;;;;;;7.85;1.17;;;;;;;;;;5059050;28;20060;-66
2023/10/29 12:35:51;;;;;;;9.00;1.10;;;;;;;;;;5058617;28;20049;-63
2023/10/29 12:38:19;;;;;;;7.63;1.00;;;;;;;;;;5053339;28;20053;-62
2023/10/29 12:41:05;;;;;;;7.82;1.25;;;;;;;;;;5071067;28;20045;-66
2023/10/29 12:43:36;;;;;;;8.35;1.05;;;;;;;;;;5056785;28;20056;-64
2023/10/29 12:46:05;;;;;;;6.45;0.80;;;;;;;;;;5054314;28;20442;-64
2023/10/29 12:48:32;;;;;;;7.30;1.42;;;;;;;;;;5055153;28;20048;-64
2023/10/29 12:51:02;;;;;;;8.90;1.38;;;;;;;;;;5061341;28;20050;-65
2023/10/29 12:53:30;;;;;;;10.45;1.27;;;;;;;;;;5059002;28;20515;-63
2023/10/29 12:55:58;;;;;;;10.57;1.40;;;;;;;;;;5063855;28;20053;-64
2023/10/29 12:58:28;;;;;;;6.18;1.40;;;;;;;;;;5057436;28;20492;-63
2023/10/29 13:00:59;;;;;;;5.43;1.00;;;;;;;;;;5061732;28;20132;-63
2023/10/29 13:03:26;;;;;;;7.93;0.77;;;;;;;;;;5062526;28;20132;-62
2023/10/29 13:05:54;;;;;;;10.70;1.45;;;;;;;;;;5057331;28;20048;-64
2023/10/29 13:08:25;;;;;;;8.13;1.30;;;;;;;;;;5062043;28;20055;-63
2023/10/29 13:10:53;;;;;;;6.55;1.13;;;;;;;;;;5054103;28;20057;-64
2023/10/29 13:13:23;;;;;;;13.48;1.10;;;;;;;;;;5053872;28;20057;-63
2023/10/29 13:15:50;;;;;;;8.00;0.90;;;;;;;;;;5051256;28;20479;-63
2023/10/29 13:18:18;;;;;;;13.10;1.48;;;;;;;;;;5054329;28;20059;-67
2023/10/29 13:20:46;;;;;;;8.35;1.08;;;;;;;;;;5057643;28;20476;-64
2023/10/29 13:23:13;;;;;;;8.30;1.00;;;;;;;;;;5060452;28;20052;-67
2023/10/29 13:25:42;;;;;;;7.47;1.45;;;;;;;;;;5054829;28;20040;-63
2023/10/29 13:28:09;;;;;;;9.48;1.23;;;;;;;;;;5061877;28;20459;-64
2023/10/29 13:30:36;;;;;;;11.68;1.52;;;;;;;;;;5059756;28;20058;-64
2023/10/29 13:33:04;;;;;;;7.30;1.13;;;;;;;;;;5061441;28;20052;-64
2023/10/29 13:35:31;;;;;;;9.57;1.13;;;;;;;;;;5055538;28;20056;-64
2023/10/29 13:37:59;;;;;;;8.68;1.20;;;;;;;;;;5057242;28;20409;-63
2023/10/29 13:40:26;;;;;;;9.95;1.92;;;;;;;;;;5056084;28;20380;-65
2023/10/29 13:42:55;;;;;;;8.00;1.25;;;;;;;;;;5058164;28;20048;-64
2023/10/29 13:45:22;;;;;;;9.80;1.40;;;;;;;;;;5053733;28;20063;-64
2023/10/29 13:47:49;;;;;;;7.07;1.30;;;;;;;;;;5052147;28;20092;-63
2023/10/29 13:50:17;;;;;;;9.02;1.27;;;;;;;;;;5059855;28;20076;-64
2023/10/29 13:52:44;;;;;;;8.68;1.23;;;;;;;;;;5059215;28;20051;-64
2023/10/29 13:55:11;;;;;;;12.38;1.00;;;;;;;;;;5060674;28;20055;-64
2023/10/29 13:57:39;;;;;;;5.00;1.10;;;;;;;;;;5058068;28;20053;-64
2023/10/29 14:00:08;;;;;;;8.50;1.42;;;;;;;;;;5064819;28;20072;-64
2023/10/29 14:02:36;;;;;;;9.52;1.35;;;;;;;;;;5059299;28;20513;-63
2023/10/29 14:05:03;;;;;;;7.82;1.23;;;;;;;;;;5057432;28;20051;-65
2023/10/29 14:07:31;;;;;;;9.60;1.20;;;;;;;;;;5063075;28;20067;-63
2023/10/29 14:09:59;;;;;;;9.38;1.40;;;;;;;;;;5055134;28;20048;-63
2023/10/29 14:12:26;;;;;;;8.95;1.25;;;;;;;;;;5054811;28;20446;-64
2023/10/29 14:14:53;;;;;;;6.72;1.23;;;;;;;;;;5052635;28;20064;-63
2023/10/29 14:17:22;;;;;;;7.10;1.15;;;;;;;;;;5057539;28;20049;-63
2023/10/29 14:19:49;;;;;;;14.15;1.33;;;;;;;;;;5059231;28;20053;-63
2023/10/29 14:22:17;;;;;;;10.50;1.40;;;;;;;;;;5056780;28;20072;-63
2023/10/29 14:24:44;;;;;;;6.85;1.25;;;;;;;;;;5051478;28;20599;-63
2023/10/29 14:27:11;;;;;;;6.47;1.15;;;;;;;;;;5058661;28;20057;-63
2023/10/29 14:29:39;;;;;;;7.78;1.00;;;;;;;;;;5059619;28;20052;-64
2023/10/29 14:32:06;;;;;;;12.25;2.05;;;;;;;;;;5059706;28;20040;-65
2023/10/29 14:34:35;;;;;;;11.02;2.47;;;;;;;;;;5053791;28;20045;-63
2023/10/29 14:37:02;;;;;;;8.32;2.33;;;;;;;;;;5064333;28;20087;-63
2023/10/29 14:39:29;;;;;;;8.27;2.10;;;;;;;;;;5060903;28;20144;-63
2023/10/29 14:41:58;;;;;;;8.25;1.63;;;;;;;;;;5059789;28;20045;-64
2023/10/29 14:44:25;;;;;;;10.82;1.42;;;;;;;;;;5060884;28;20052;-63
2023/10/29 14:46:52;;;;;;;8.98;1.30;;;;;;;;;;5059403;28;20058;-63
2023/10/29 14:49:19;;;;;;;10.18;1.08;;;;;;;;;;5061685;28;20139;-64